createdAt,value
2023-03-29T00:02:19.951Z,3.17
2023-03-29T00:04:47.235Z,3.47
2023-03-29T00:07:14.412Z,3.10
2023-03-29T00:09:42.573Z,3.50
2023-03-29T00:12:11.239Z,3.50
2023-03-29T00:14:38.432Z,3.07
2023-03-29T00:17:05.628Z,3.30
2023-03-29T00:19:36.780Z,3.50
2023-03-29T00:22:06.314Z,3.90
2023-03-29T00:24:33.502Z,4.03
2023-03-29T00:27:01.176Z,3.77
2023-03-29T00:29:28.514Z,4.03
2023-03-29T00:31:56.155Z,3.40
2023-03-29T00:34:24.641Z,3.50
2023-03-29T00:36:53.081Z,3.30
2023-03-29T00:39:21.247Z,3.27
2023-03-29T00:41:51.625Z,3.70
2023-03-29T00:44:56.419Z,3.97
2023-03-29T00:47:45.618Z,3.67
2023-03-29T00:50:22.516Z,3.77
2023-03-29T00:53:09.853Z,3.90
2023-03-29T00:55:49.928Z,3.30
2023-03-29T00:58:27.398Z,3.43
2023-03-29T01:01:02.449Z,3.27
2023-03-29T01:03:38.124Z,3.40
2023-03-29T01:06:08.776Z,3.77
2023-03-29T01:08:41.966Z,3.10
2023-03-29T01:11:32.731Z,2.93
2023-03-29T01:14:03.819Z,4.17
2023-03-29T01:16:33.577Z,3.30
2023-03-29T01:19:02.408Z,2.97
2023-03-29T01:22:03.954Z,3.47
2023-03-29T01:25:05.454Z,2.87
2023-03-29T01:27:53.414Z,2.90
2023-03-29T01:30:43.955Z,2.67
2023-03-29T01:33:21.302Z,3.10
2023-03-29T01:35:57.725Z,3.13
2023-03-29T01:38:34.017Z,2.67
2023-03-29T01:41:03.671Z,2.83
2023-03-29T01:43:42.306Z,2.90
2023-03-29T01:46:25.274Z,3.07
2023-03-29T01:49:20.745Z,3.17
2023-03-29T01:52:15.442Z,2.90
2023-03-29T01:54:50.391Z,3.10
2023-03-29T01:57:23.074Z,2.83
2023-03-29T01:59:53.361Z,2.83
2023-03-29T02:02:21.752Z,2.70
2023-03-29T02:04:52.427Z,2.97
2023-03-29T02:07:23.635Z,2.90
2023-03-29T02:09:52.721Z,3.10
2023-03-29T02:12:20.867Z,3.60
2023-03-29T02:14:47.980Z,2.97
2023-03-29T02:17:26.578Z,3.10
2023-03-29T02:20:14.045Z,2.57
2023-03-29T02:23:04.696Z,3.20
2023-03-29T02:25:32.705Z,3.60
2023-03-29T02:28:01.014Z,3.10
2023-03-29T02:31:11.489Z,3.40
2023-03-29T02:33:52.229Z,3.40
2023-03-29T02:36:34.200Z,3.13
2023-03-29T02:39:05.867Z,3.40
2023-03-29T02:41:34.371Z,2.60
2023-03-29T02:44:04.344Z,3.00
2023-03-29T02:46:32.033Z,2.90
2023-03-29T02:49:00.054Z,3.40
2023-03-29T02:51:32.606Z,3.10
2023-03-29T02:54:17.911Z,3.20
2023-03-29T02:56:50.715Z,2.93
2023-03-29T02:59:25.172Z,3.47
2023-03-29T03:01:52.921Z,3.40
2023-03-29T03:04:23.429Z,2.93
2023-03-29T03:06:50.728Z,3.33
2023-03-29T03:09:18.553Z,3.60
2023-03-29T03:11:47.523Z,3.37
2023-03-29T03:14:14.780Z,3.33
2023-03-29T03:16:42.172Z,3.47
2023-03-29T03:19:10.552Z,3.03
2023-03-29T03:21:38.408Z,3.07
2023-03-29T03:24:07.708Z,3.40
2023-03-29T03:26:36.076Z,3.00
2023-03-29T03:29:05.498Z,3.37
2023-03-29T03:32:01.084Z,3.20
2023-03-29T03:34:57.471Z,2.57
2023-03-29T03:37:27.660Z,2.83
2023-03-29T03:39:55.172Z,2.70
2023-03-29T03:42:23.619Z,3.07
2023-03-29T03:44:50.849Z,3.30
2023-03-29T03:47:41.185Z,2.90
2023-03-29T03:50:27.553Z,2.70
2023-03-29T03:52:55.615Z,3.10
2023-03-29T03:55:22.816Z,2.70
2023-03-29T03:58:05.663Z,2.77
2023-03-29T04:00:33.459Z,3.20
2023-03-29T04:03:24.287Z,3.10
2023-03-29T04:05:51.575Z,3.00
2023-03-29T04:08:23.140Z,2.63
2023-03-29T04:11:09.340Z,3.00
2023-03-29T04:13:38.626Z,2.87
2023-03-29T04:16:27.555Z,2.77
2023-03-29T04:18:56.692Z,2.93
2023-03-29T04:21:24.873Z,3.50
2023-03-29T04:23:53.207Z,3.60
2023-03-29T04:26:20.348Z,2.97
2023-03-29T04:28:50.612Z,3.00
2023-03-29T04:31:27.988Z,3.10
2023-03-29T04:34:15.389Z,3.10
2023-03-29T04:36:43.746Z,3.00
2023-03-29T04:39:20.613Z,2.83
2023-03-29T04:41:53.624Z,2.60
2023-03-29T04:44:24.782Z,3.27
2023-03-29T04:46:52.400Z,2.77
2023-03-29T04:49:38.144Z,2.70
2023-03-29T04:52:10.519Z,3.20
2023-03-29T04:54:38.504Z,3.00
2023-03-29T04:57:19.212Z,2.83
2023-03-29T04:59:55.847Z,2.60
2023-03-29T05:02:46.271Z,2.67
2023-03-29T05:05:15.300Z,2.60
2023-03-29T05:07:44.404Z,2.93
2023-03-29T05:10:14.985Z,3.10
2023-03-29T05:12:42.984Z,2.53
2023-03-29T05:15:10.813Z,2.53
2023-03-29T05:17:38.143Z,3.00
2023-03-29T05:20:11.167Z,2.97
2023-03-29T05:22:40.381Z,2.90
2023-03-29T05:25:11.830Z,3.00
2023-03-29T05:27:42.600Z,3.00
2023-03-29T05:30:12.066Z,3.43
2023-03-29T05:32:58.256Z,3.37
2023-03-29T05:35:26.971Z,2.50
2023-03-29T05:37:56.412Z,2.33
2023-03-29T05:40:26.309Z,2.70
2023-03-29T05:43:12.240Z,2.63
2023-03-29T05:45:39.555Z,2.50
2023-03-29T05:48:06.946Z,2.87
2023-03-29T05:50:36.889Z,2.80
2023-03-29T05:53:05.157Z,3.00
2023-03-29T05:55:33.382Z,2.67
2023-03-29T05:58:01.169Z,2.70
2023-03-29T06:00:34.507Z,2.50
2023-03-29T06:03:21.317Z,2.47
2023-03-29T06:05:59.373Z,2.77
2023-03-29T06:08:27.781Z,2.80
2023-03-29T06:11:06.091Z,2.20
2023-03-29T06:13:52.959Z,2.90
2023-03-29T06:16:20.373Z,2.13
2023-03-29T06:18:48.014Z,2.57
2023-03-29T06:21:15.470Z,2.33
2023-03-29T06:23:43.033Z,2.40
2023-03-29T06:26:10.765Z,2.57
2023-03-29T06:28:39.142Z,2.70
2023-03-29T06:31:06.891Z,2.57
2023-03-29T06:33:38.864Z,2.50
2023-03-29T06:36:28.985Z,2.50
2023-03-29T06:38:56.264Z,2.10
2023-03-29T06:41:38.481Z,2.17
2023-03-29T06:44:14.413Z,2.30
2023-03-29T06:46:57.971Z,3.03
2023-03-29T06:49:26.287Z,2.57
2023-03-29T06:52:12.301Z,2.20
2023-03-29T06:54:40.787Z,2.43
2023-03-29T06:57:08.491Z,3.60
2023-03-29T06:59:36.036Z,2.30
2023-03-29T07:02:22.857Z,2.70
2023-03-29T07:05:02.101Z,2.77
2023-03-29T07:07:53.488Z,2.17
2023-03-29T07:10:44.129Z,2.90
2023-03-29T07:13:44.991Z,2.63
2023-03-29T07:16:18.204Z,2.37
2023-03-29T07:18:57.568Z,2.50
2023-03-29T07:21:44.957Z,3.27
2023-03-29T07:24:13.017Z,2.33
2023-03-29T07:26:46.323Z,2.30
2023-03-29T07:29:19.970Z,2.47
2023-03-29T07:31:47.185Z,2.67
2023-03-29T07:34:33.557Z,2.13
2023-03-29T07:37:01.003Z,2.50
2023-03-29T07:39:28.246Z,2.37
2023-03-29T07:42:18.655Z,2.80
2023-03-29T07:44:46.011Z,2.40
2023-03-29T07:47:13.447Z,2.87
2023-03-29T07:49:40.790Z,2.30
2023-03-29T07:52:08.254Z,2.13
2023-03-29T07:54:35.486Z,2.27
2023-03-29T07:57:18.892Z,2.60
2023-03-29T07:59:51.902Z,2.23
2023-03-29T08:02:22.886Z,2.30
2023-03-29T08:04:53.973Z,2.10
2023-03-29T08:07:56.272Z,2.20
2023-03-29T08:10:49.554Z,2.37
2023-03-29T08:13:52.334Z,2.10
2023-03-29T08:16:38.393Z,2.50
2023-03-29T08:19:10.609Z,2.60
2023-03-29T08:21:54.031Z,2.40
2023-03-29T08:24:24.240Z,2.13
2023-03-29T08:26:56.572Z,2.07
2023-03-29T08:29:25.226Z,2.33
2023-03-29T08:31:52.854Z,1.90
2023-03-29T08:34:20.068Z,2.40
2023-03-29T08:37:02.134Z,2.80
2023-03-29T08:39:40.904Z,1.90
2023-03-29T08:43:33.663Z,2.00
2023-03-29T08:46:45.270Z,2.00
2023-03-29T08:49:31.945Z,2.90
2023-03-29T08:52:05.359Z,2.00
2023-03-29T08:54:42.460Z,2.20
2023-03-29T08:57:33.482Z,2.37
2023-03-29T09:00:21.885Z,1.97
2023-03-29T09:02:52.011Z,2.20
2023-03-29T09:05:43.611Z,2.43
2023-03-29T09:08:21.402Z,2.03
2023-03-29T09:11:31.361Z,2.37
2023-03-29T09:14:33.694Z,2.23
2023-03-29T09:17:29.695Z,2.03
2023-03-29T09:20:57.182Z,2.40
2023-03-29T09:27:13.939Z,2.30
2023-03-29T09:36:24.361Z,2.00
2023-03-29T09:38:54.655Z,2.60
2023-03-29T09:41:34.557Z,2.00
2023-03-29T09:44:30.838Z,2.27
2023-03-29T09:47:34.210Z,1.90
2023-03-29T09:50:31.061Z,2.10
2023-03-29T09:53:01.760Z,2.00
2023-03-29T09:55:37.184Z,2.00
2023-03-29T09:58:27.598Z,1.87
2023-03-29T10:00:59.677Z,1.90
2023-03-29T10:03:31.893Z,1.67
2023-03-29T10:06:12.768Z,2.10
2023-03-29T10:09:09.538Z,2.20
2023-03-29T10:11:48.038Z,2.13
2023-03-29T10:14:37.171Z,2.27
2023-03-29T10:17:34.223Z,2.20
2023-03-29T10:20:08.207Z,1.83
2023-03-29T10:22:40.489Z,1.80
2023-03-29T10:25:15.180Z,1.90
2023-03-29T10:27:45.086Z,2.20
2023-03-29T10:30:35.060Z,2.10
2023-03-29T10:33:03.301Z,1.63
2023-03-29T10:35:41.985Z,1.90
2023-03-29T10:38:15.020Z,1.90
2023-03-29T10:40:48.244Z,2.10
2023-03-29T10:43:27.093Z,1.90
2023-03-29T10:45:56.523Z,1.60
2023-03-29T10:48:31.311Z,1.97
2023-03-29T10:51:01.444Z,2.00
2023-03-29T10:53:32.662Z,2.00
2023-03-29T10:56:28.927Z,1.60
2023-03-29T10:59:33.036Z,1.80
2023-03-29T11:02:54.159Z,1.67
2023-03-29T11:05:48.703Z,1.67
2023-03-29T11:08:35.387Z,1.90
2023-03-29T11:11:35.072Z,2.07
2023-03-29T11:14:20.613Z,1.90
2023-03-29T11:17:30.701Z,2.07
2023-03-29T11:20:45.881Z,1.67
2023-03-29T11:24:01.820Z,1.87
2023-03-29T11:27:04.158Z,1.70
2023-03-29T11:44:58.908Z,1.40
2023-03-29T11:47:37.391Z,1.70
2023-03-29T11:50:25.772Z,1.73
2023-03-29T11:53:07.253Z,1.30
2023-03-29T11:55:38.765Z,1.80
2023-03-29T11:58:31.540Z,1.70
2023-03-29T12:01:04.445Z,1.70
2023-03-29T12:04:02.592Z,1.37
2023-03-29T12:06:50.830Z,1.70
2023-03-29T12:09:50.516Z,1.50
2023-03-29T12:13:00.239Z,2.30
2023-03-29T12:15:32.701Z,1.47
2023-03-29T12:18:55.790Z,1.60
2023-03-29T12:21:25.113Z,1.67
2023-03-29T12:23:53.374Z,1.63
2023-03-29T12:27:05.510Z,1.80
2023-03-29T12:29:57.593Z,1.50
2023-03-29T12:33:15.771Z,1.50
2023-03-29T12:37:00.890Z,1.50
2023-03-29T12:43:41.346Z,1.80
2023-03-29T12:46:35.520Z,1.67
2023-03-29T12:49:24.393Z,1.47
2023-03-29T12:51:53.122Z,1.43
2023-03-29T12:54:23.427Z,2.27
2023-03-29T12:56:58.568Z,1.60
2023-03-29T12:59:39.582Z,1.83
2023-03-29T13:02:37.211Z,1.40
2023-03-29T13:05:25.061Z,1.70
2023-03-29T13:07:52.784Z,1.97
2023-03-29T13:10:40.001Z,1.50
2023-03-29T13:13:33.344Z,1.67
2023-03-29T13:16:16.323Z,1.57
2023-03-29T13:19:38.778Z,1.70
2023-03-29T13:22:34.292Z,2.50
2023-03-29T13:25:36.576Z,1.37
2023-03-29T13:28:24.650Z,1.50
2023-03-29T13:31:19.376Z,1.30
2023-03-29T13:34:33.894Z,1.80
2023-03-29T13:37:36.806Z,2.30
2023-03-29T13:40:25.383Z,1.50
2023-03-29T13:43:23.640Z,2.03
2023-03-29T13:46:23.695Z,1.40
2023-03-29T13:49:11.711Z,1.80
2023-03-29T13:51:48.320Z,1.80
2023-03-29T13:54:43.212Z,1.60
2023-03-29T13:57:57.240Z,1.43
2023-03-29T14:00:31.723Z,1.47
2023-03-29T14:03:02.147Z,1.53
2023-03-29T14:05:38.732Z,1.60
2023-03-29T14:08:22.334Z,1.83
2023-03-29T14:10:50.200Z,2.23
2023-03-29T14:13:19.595Z,1.50
2023-03-29T14:16:02.981Z,1.40
2023-03-29T14:18:36.841Z,1.87
2023-03-29T14:21:04.935Z,1.47
2023-03-29T14:23:33.793Z,1.70
2023-03-29T14:26:17.835Z,1.73
2023-03-29T14:28:59.464Z,2.03
2023-03-29T14:31:35.188Z,1.73
2023-03-29T14:34:04.734Z,2.53
2023-03-29T14:36:33.599Z,1.60
2023-03-29T14:39:08.234Z,2.00
2023-03-29T14:41:37.559Z,2.07
2023-03-29T14:44:08.604Z,2.40
2023-03-29T14:46:36.632Z,2.00
2023-03-29T14:49:05.139Z,2.30
2023-03-29T14:51:32.583Z,1.97
2023-03-29T14:54:02.253Z,1.97
2023-03-29T14:56:32.666Z,2.27
2023-03-29T14:59:01.679Z,2.00
2023-03-29T15:01:28.873Z,1.80
2023-03-29T15:04:10.429Z,2.17
2023-03-29T15:06:41.023Z,2.13
2023-03-29T15:09:17.077Z,1.80
2023-03-29T15:11:55.237Z,2.07
2023-03-29T15:14:24.853Z,2.17
2023-03-29T15:16:56.670Z,1.97
2023-03-29T15:19:26.277Z,2.03
2023-03-29T15:21:53.707Z,2.20
2023-03-29T15:24:32.067Z,1.70
2023-03-29T15:27:16.361Z,2.30
2023-03-29T15:29:46.944Z,1.80
2023-03-29T15:32:24.815Z,2.20
2023-03-29T15:35:08.067Z,2.63
2023-03-29T15:37:36.006Z,2.03
2023-03-29T15:40:09.888Z,2.17
2023-03-29T15:42:37.181Z,1.73
2023-03-29T15:45:07.524Z,2.00
2023-03-29T15:47:34.764Z,2.30
2023-03-29T15:50:02.137Z,2.70
2023-03-29T15:52:29.291Z,2.30
2023-03-29T15:54:56.552Z,2.00
2023-03-29T15:57:23.884Z,1.90
2023-03-29T15:59:51.292Z,2.40
2023-03-29T16:02:23.211Z,2.30
2023-03-29T16:04:51.061Z,2.13
2023-03-29T16:07:19.861Z,1.93
2023-03-29T16:09:47.419Z,1.97
2023-03-29T16:12:16.455Z,2.57
2023-03-29T16:14:55.694Z,2.80
2023-03-29T16:17:22.826Z,1.90
2023-03-29T16:19:50.120Z,2.40
2023-03-29T16:22:17.320Z,2.30
2023-03-29T16:24:44.360Z,2.23
2023-03-29T16:27:11.414Z,2.60
2023-03-29T16:29:38.488Z,2.40
2023-03-29T16:32:06.909Z,2.00
2023-03-29T16:34:36.123Z,2.20
2023-03-29T16:37:03.742Z,2.73
2023-03-29T16:39:30.890Z,2.10
2023-03-29T16:41:57.940Z,2.43
2023-03-29T16:44:27.688Z,2.97
2023-03-29T16:46:57.494Z,2.47
2023-03-29T16:49:24.826Z,2.97
2023-03-29T16:51:52.196Z,2.53
2023-03-29T16:54:19.359Z,3.27
2023-03-29T16:56:47.057Z,2.63
2023-03-29T16:59:14.518Z,2.73
2023-03-29T17:01:41.759Z,2.00
2023-03-29T17:04:09.353Z,2.00
2023-03-29T17:06:37.045Z,2.50
2023-03-29T17:09:05.198Z,2.80
2023-03-29T17:11:32.582Z,2.47
2023-03-29T17:14:00.247Z,2.17
2023-03-29T17:16:29.210Z,2.10
2023-03-29T17:19:00.412Z,2.60
2023-03-29T17:21:29.384Z,2.90
2023-03-29T17:23:56.582Z,2.43
2023-03-29T17:26:23.866Z,2.50
2023-03-29T17:28:51.065Z,2.30
2023-03-29T17:31:19.477Z,2.43
2023-03-29T17:33:47.573Z,3.07
2023-03-29T17:36:14.898Z,2.37
2023-03-29T17:38:42.981Z,2.83
2023-03-29T17:41:11.182Z,2.97
2023-03-29T17:43:38.263Z,2.00
2023-03-29T17:46:06.166Z,3.33
2023-03-29T17:48:33.517Z,3.00
2023-03-29T17:51:00.950Z,2.57
2023-03-29T17:53:28.060Z,2.80
2023-03-29T17:55:55.577Z,2.73
2023-03-29T17:58:22.622Z,3.07
2023-03-29T18:00:50.113Z,2.40
2023-03-29T18:03:17.366Z,3.03
2023-03-29T18:05:44.509Z,3.23
2023-03-29T18:08:13.612Z,3.20
2023-03-29T18:10:41.064Z,3.17
2023-03-29T18:13:11.380Z,3.30
2023-03-29T18:15:38.549Z,3.15
2023-03-29T18:18:05.729Z,2.97
2023-03-29T18:20:32.901Z,2.63
2023-03-29T18:22:59.996Z,2.50
2023-03-29T18:25:27.230Z,3.40
2023-03-29T18:27:54.319Z,2.87
2023-03-29T18:30:21.670Z,3.30
2023-03-29T18:32:48.795Z,2.73
2023-03-29T18:35:16.017Z,2.93
2023-03-29T18:37:43.121Z,2.57
2023-03-29T18:40:10.570Z,2.90
2023-03-29T18:42:37.752Z,2.73
2023-03-29T18:45:05.753Z,2.87
2023-03-29T18:47:33.266Z,2.50
2023-03-29T18:50:01.143Z,3.37
2023-03-29T18:52:28.305Z,2.67
2023-03-29T18:54:55.495Z,3.57
2023-03-29T18:57:22.633Z,3.03
2023-03-29T18:59:49.790Z,2.87
2023-03-29T19:02:17.439Z,2.97
2023-03-29T19:04:44.547Z,3.00
2023-03-29T19:07:11.788Z,3.10
2023-03-29T19:09:38.894Z,2.90
2023-03-29T19:12:06.653Z,3.23
2023-03-29T19:14:33.930Z,3.07
2023-03-29T19:17:01.068Z,2.90
2023-03-29T19:19:28.161Z,3.70
2023-03-29T19:21:57.713Z,3.27
2023-03-29T19:24:27.062Z,3.20
2023-03-29T19:26:54.319Z,3.40
2023-03-29T19:29:21.738Z,3.27
2023-03-29T19:31:51.044Z,2.90
2023-03-29T19:34:21.200Z,3.50
2023-03-29T19:36:48.434Z,3.37
2023-03-29T19:39:15.952Z,3.27
2023-03-29T19:41:43.129Z,2.87
2023-03-29T19:44:10.432Z,3.13
2023-03-29T19:46:37.849Z,2.87
2023-03-29T19:49:05.852Z,2.23
2023-03-29T19:51:33.024Z,2.73
2023-03-29T19:54:00.725Z,3.03
2023-03-29T19:56:28.049Z,2.93
2023-03-29T19:58:55.846Z,3.33
2023-03-29T20:01:23.050Z,2.80
2023-03-29T20:03:50.765Z,2.80
2023-03-29T20:06:19.495Z,2.83
2023-03-29T20:08:47.250Z,3.23
2023-03-29T20:11:15.454Z,2.70
2023-03-29T20:13:44.341Z,3.00
2023-03-29T20:16:14.041Z,3.30
2023-03-29T20:18:41.281Z,3.10
2023-03-29T20:21:09.347Z,3.33
2023-03-29T20:23:36.743Z,3.23
2023-03-29T20:26:04.012Z,3.10
2023-03-29T20:28:31.684Z,2.77
2023-03-29T20:31:06.426Z,3.20
2023-03-29T20:33:33.858Z,3.03
2023-03-29T20:36:01.093Z,2.80
2023-03-29T20:38:28.539Z,3.30
2023-03-29T20:40:55.899Z,3.60
2023-03-29T20:43:23.319Z,3.10
2023-03-29T20:45:53.825Z,3.30
2023-03-29T20:48:30.301Z,3.00
2023-03-29T20:50:57.834Z,3.20
2023-03-29T20:53:25.920Z,3.60
2023-03-29T20:55:53.097Z,3.17
2023-03-29T20:58:20.202Z,3.27
2023-03-29T21:00:48.497Z,3.23
2023-03-29T21:03:15.854Z,3.77
2023-03-29T21:05:43.580Z,3.17
2023-03-29T21:08:10.889Z,3.40
2023-03-29T21:10:37.996Z,3.90
2023-03-29T21:13:05.122Z,3.40
2023-03-29T21:15:33.247Z,2.77
2023-03-29T21:18:00.587Z,3.03
2023-03-29T21:20:27.975Z,2.67
2023-03-29T21:22:55.121Z,3.60
2023-03-29T21:25:22.431Z,4.70
2023-03-29T21:27:49.569Z,3.10
2023-03-29T21:30:17.166Z,5.10
2023-03-29T21:32:44.249Z,3.60
2023-03-29T21:35:11.668Z,3.80
2023-03-29T21:37:38.966Z,3.03
2023-03-29T21:40:08.626Z,3.33
2023-03-29T21:42:35.811Z,4.93
2023-03-29T21:45:03.280Z,3.50
2023-03-29T21:47:31.142Z,3.30
2023-03-29T21:49:58.283Z,3.47
2023-03-29T21:52:25.569Z,3.63
2023-03-29T21:54:52.740Z,3.10
2023-03-29T21:57:19.920Z,3.30
2023-03-29T21:59:47.075Z,3.07
2023-03-29T22:02:14.222Z,3.13
2023-03-29T22:04:41.511Z,3.20
2023-03-29T22:07:10.697Z,3.37
2023-03-29T22:09:37.966Z,3.00
2023-03-29T22:12:05.254Z,3.23
2023-03-29T22:14:35.334Z,2.97
2023-03-29T22:17:06.304Z,3.70
2023-03-29T22:19:39.704Z,3.23
2023-03-29T22:22:13.760Z,3.60
2023-03-29T22:24:42.098Z,3.93
2023-03-29T22:27:10.597Z,3.83
2023-03-29T22:29:37.785Z,3.23
2023-03-29T22:32:05.156Z,3.63
2023-03-29T22:34:32.566Z,2.77
2023-03-29T22:36:59.673Z,3.17
2023-03-29T22:39:26.956Z,3.60
2023-03-29T22:41:54.328Z,3.57
2023-03-29T22:44:21.438Z,3.57
2023-03-29T22:46:48.463Z,3.73
2023-03-29T22:49:15.570Z,3.20
2023-03-29T22:51:42.665Z,3.47
2023-03-29T22:54:09.850Z,3.60
2023-03-29T22:56:36.882Z,3.60
2023-03-29T22:59:04.159Z,3.77
2023-03-29T23:01:31.306Z,3.80
2023-03-29T23:03:58.521Z,3.23
2023-03-29T23:06:25.880Z,3.50
2023-03-29T23:08:52.957Z,3.40
2023-03-29T23:11:20.007Z,3.27
2023-03-29T23:13:49.054Z,3.17
2023-03-29T23:16:16.525Z,3.43
2023-03-29T23:18:43.943Z,3.70
2023-03-29T23:21:11.056Z,3.67
2023-03-29T23:23:38.428Z,3.80
2023-03-29T23:26:06.227Z,3.63
2023-03-29T23:28:34.588Z,3.97
2023-03-29T23:31:13.236Z,3.43
2023-03-29T23:33:42.859Z,3.70
2023-03-29T23:36:15.655Z,3.53
2023-03-29T23:38:45.317Z,4.33
2023-03-29T23:41:13.030Z,3.37
2023-03-29T23:43:42.811Z,3.33
2023-03-29T23:46:12.503Z,3.97
2023-03-29T23:48:39.674Z,4.33
2023-03-29T23:51:08.232Z,3.90
2023-03-29T23:53:35.482Z,4.43
2023-03-29T23:56:05.125Z,4.00
2023-03-29T23:58:35.020Z,3.20
